createdAt,value
2018-12-31T00:00:46.102Z,1016.07
2018-12-31T00:01:46.087Z,1016.06
2018-12-31T00:02:56.172Z,1015.99
2018-12-31T00:03:46.098Z,1015.96
2018-12-31T00:04:46.054Z,1015.95
2018-12-31T00:05:46.043Z,1015.92
2018-12-31T00:06:57.222Z,1015.93
2018-12-31T00:07:46.021Z,1015.91
2018-12-31T00:08:46.015Z,1015.92
2018-12-31T00:09:46.022Z,1015.89
2018-12-31T00:10:45.988Z,1015.85
2018-12-31T00:11:45.975Z,1015.80
2018-12-31T00:12:45.967Z,1015.81
2018-12-31T00:13:45.952Z,1015.82
2018-12-31T00:14:45.959Z,1015.77
2018-12-31T00:15:45.934Z,1015.78
2018-12-31T00:16:45.918Z,1015.80
2018-12-31T00:17:45.913Z,1015.77
2018-12-31T00:18:45.896Z,1015.82
2018-12-31T00:19:45.915Z,1015.82
2018-12-31T00:20:45.873Z,1015.85
2018-12-31T00:21:45.862Z,1015.82
2018-12-31T00:22:45.853Z,1015.81
2018-12-31T00:23:45.842Z,1015.81
2018-12-31T00:24:45.831Z,1015.77
2018-12-31T00:25:45.860Z,1015.76
2018-12-31T00:26:45.805Z,1015.82
2018-12-31T00:27:45.795Z,1015.71
2018-12-31T00:28:45.782Z,1015.75
2018-12-31T00:29:45.771Z,1015.73
2018-12-31T00:30:45.775Z,1015.72
2018-12-31T00:31:45.747Z,1015.77
2018-12-31T00:32:45.737Z,1015.84
2018-12-31T00:33:45.727Z,1015.78
2018-12-31T00:34:45.716Z,1015.78
2018-12-31T00:35:45.741Z,1015.81
2018-12-31T00:36:45.695Z,1015.82
2018-12-31T00:37:45.680Z,1015.90
2018-12-31T00:38:45.669Z,1015.89
2018-12-31T00:39:45.658Z,1015.93
2018-12-31T00:40:45.647Z,1015.94
2018-12-31T00:41:45.654Z,1015.98
2018-12-31T00:42:45.623Z,1016.02
2018-12-31T00:43:45.613Z,1016.00
2018-12-31T00:44:45.603Z,1016.01
2018-12-31T00:45:45.590Z,1016.04
2018-12-31T00:46:45.607Z,1016.09
2018-12-31T00:47:45.567Z,1016.05
2018-12-31T00:48:45.557Z,1016.05
2018-12-31T00:49:45.544Z,1016.03
2018-12-31T00:50:45.533Z,1016.04
2018-12-31T00:51:45.551Z,1016.05
2018-12-31T00:52:45.511Z,1016.02
2018-12-31T00:53:45.501Z,1016.04
2018-12-31T00:54:45.489Z,1016.04
2018-12-31T00:55:45.481Z,1016.03
2018-12-31T00:56:45.469Z,1016.03
2018-12-31T00:57:45.469Z,1016.07
2018-12-31T00:58:45.445Z,1016.00
2018-12-31T00:59:45.504Z,1016.05
2018-12-31T01:00:45.421Z,1016.01
2018-12-31T01:01:45.408Z,1016.02
2018-12-31T01:02:45.416Z,1015.99
2018-12-31T01:03:45.385Z,1016.05
2018-12-31T01:04:45.374Z,1016.09
2018-12-31T01:05:45.363Z,1016.08
2018-12-31T01:06:45.354Z,1016.08
2018-12-31T01:07:45.373Z,1016.02
2018-12-31T01:08:45.333Z,1016.04
2018-12-31T01:09:45.360Z,1016.03
2018-12-31T01:10:45.308Z,1016.04
2018-12-31T01:11:45.319Z,1016.04
2018-12-31T01:12:45.288Z,1016.06
2018-12-31T01:13:45.291Z,1016.04
2018-12-31T01:14:45.262Z,1016.07
2018-12-31T01:15:45.254Z,1016.05
2018-12-31T01:16:45.241Z,1016.07
2018-12-31T01:17:45.233Z,1016.07
2018-12-31T01:18:45.244Z,1016.04
2018-12-31T01:19:45.729Z,1016.04
2018-12-31T01:20:45.195Z,1016.05
2018-12-31T01:21:45.185Z,1016.13
2018-12-31T01:22:45.171Z,1016.15
2018-12-31T01:23:45.188Z,1016.14
2018-12-31T01:24:45.149Z,1016.16
2018-12-31T01:25:45.137Z,1016.11
2018-12-31T01:26:45.126Z,1016.11
2018-12-31T01:27:45.117Z,1016.11
2018-12-31T01:28:45.103Z,1016.16
2018-12-31T01:29:45.112Z,1016.13
2018-12-31T01:30:45.082Z,1016.13
2018-12-31T01:31:45.073Z,1016.14
2018-12-31T01:32:45.057Z,1016.17
2018-12-31T01:33:45.049Z,1016.21
2018-12-31T01:34:45.053Z,1016.17
2018-12-31T01:35:45.083Z,1016.15
2018-12-31T01:36:45.013Z,1016.19
2018-12-31T01:37:45.000Z,1016.21
2018-12-31T01:38:44.992Z,1016.18
2018-12-31T01:39:45.007Z,1016.21
2018-12-31T01:40:44.968Z,1016.22
2018-12-31T01:41:44.956Z,1016.25
2018-12-31T01:42:44.947Z,1016.22
2018-12-31T01:43:44.934Z,1016.16
2018-12-31T01:44:44.924Z,1016.16
2018-12-31T01:45:44.927Z,1016.14
2018-12-31T01:46:44.903Z,1016.15
2018-12-31T01:47:44.967Z,1016.09
2018-12-31T01:48:44.877Z,1016.09
2018-12-31T01:49:44.866Z,1016.16
2018-12-31T01:50:44.873Z,1016.20
2018-12-31T01:51:44.848Z,1016.18
2018-12-31T01:52:44.835Z,1016.07
2018-12-31T01:53:44.820Z,1016.07
2018-12-31T01:54:44.811Z,1016.05
2018-12-31T01:55:44.826Z,1016.08
2018-12-31T01:56:44.787Z,1016.14
2018-12-31T01:57:44.776Z,1016.16
2018-12-31T01:58:44.764Z,1016.18
2018-12-31T01:59:44.755Z,1016.09
2018-12-31T02:00:44.742Z,1016.10
2018-12-31T02:01:44.757Z,1016.04
2018-12-31T02:02:44.722Z,1016.14
2018-12-31T02:03:44.708Z,1016.18
2018-12-31T02:04:44.696Z,1016.19
2018-12-31T02:05:44.684Z,1016.17
2018-12-31T02:06:44.694Z,1016.18
2018-12-31T02:07:44.662Z,1016.10
2018-12-31T02:08:44.652Z,1016.05
2018-12-31T02:09:44.646Z,1016.00
2018-12-31T02:10:44.628Z,1016.07
2018-12-31T02:11:44.645Z,1016.10
2018-12-31T02:12:44.606Z,1016.11
2018-12-31T02:13:44.596Z,1016.11
2018-12-31T02:14:44.588Z,1016.15
2018-12-31T02:15:44.579Z,1016.17
2018-12-31T02:16:44.561Z,1016.18
2018-12-31T02:17:44.567Z,1016.20
2018-12-31T02:18:45.611Z,1016.22
2018-12-31T02:19:44.527Z,1016.23
2018-12-31T02:20:44.516Z,1016.24
2018-12-31T02:21:44.505Z,1016.17
2018-12-31T02:22:44.522Z,1016.13
2018-12-31T02:23:44.482Z,1016.18
2018-12-31T02:24:44.471Z,1016.18
2018-12-31T02:25:44.460Z,1016.19
2018-12-31T02:26:44.451Z,1016.31
2018-12-31T02:27:44.466Z,1016.27
2018-12-31T02:28:44.428Z,1016.27
2018-12-31T02:29:44.416Z,1016.19
2018-12-31T02:30:44.411Z,1016.18
2018-12-31T02:31:44.395Z,1016.15
2018-12-31T02:32:44.393Z,1016.14
2018-12-31T02:33:44.392Z,1016.18
2018-12-31T02:34:44.369Z,1016.18
2018-12-31T02:35:44.348Z,1016.31
2018-12-31T02:36:44.335Z,1016.36
2018-12-31T02:37:44.325Z,1016.37
2018-12-31T02:38:44.470Z,1016.45
2018-12-31T02:39:44.302Z,1016.40
2018-12-31T02:40:44.292Z,1016.39
2018-12-31T02:41:44.279Z,1016.40
2018-12-31T02:42:44.268Z,1016.43
2018-12-31T02:43:44.291Z,1016.48
2018-12-31T02:44:44.246Z,1016.41
2018-12-31T02:45:44.244Z,1016.43
2018-12-31T02:46:44.236Z,1016.40
2018-12-31T02:47:44.215Z,1016.40
2018-12-31T02:48:44.203Z,1016.44
2018-12-31T02:49:44.209Z,1016.44
2018-12-31T02:50:44.197Z,1016.44
2018-12-31T02:51:44.169Z,1016.50
2018-12-31T02:52:44.158Z,1016.51
2018-12-31T02:53:44.151Z,1016.50
2018-12-31T02:54:44.139Z,1016.51
2018-12-31T02:55:44.158Z,1016.48
2018-12-31T02:56:44.117Z,1016.43
2018-12-31T02:57:44.104Z,1016.38
2018-12-31T02:58:44.091Z,1016.41
2018-12-31T02:59:44.079Z,1016.39
2018-12-31T03:00:44.076Z,1016.32
2018-12-31T03:01:44.077Z,1016.27
2018-12-31T03:02:44.047Z,1016.24
2018-12-31T03:03:44.036Z,1016.20
2018-12-31T03:04:44.025Z,1016.25
2018-12-31T03:05:44.012Z,1016.26
2018-12-31T03:06:44.031Z,1016.23
2018-12-31T03:07:43.992Z,1016.27
2018-12-31T03:08:43.977Z,1016.32
2018-12-31T03:09:43.969Z,1016.34
2018-12-31T03:10:43.956Z,1016.33
2018-12-31T03:11:43.948Z,1016.25
2018-12-31T03:12:43.966Z,1016.30
2018-12-31T03:13:43.921Z,1016.29
2018-12-31T03:14:43.913Z,1016.33
2018-12-31T03:15:43.901Z,1016.30
2018-12-31T03:16:43.891Z,1016.29
2018-12-31T03:17:43.879Z,1016.31
2018-12-31T03:18:43.895Z,1016.29
2018-12-31T03:19:43.861Z,1016.26
2018-12-31T03:20:43.843Z,1016.24
2018-12-31T03:21:43.832Z,1016.21
2018-12-31T03:22:43.824Z,1016.28
2018-12-31T03:23:43.810Z,1016.16
2018-12-31T03:24:43.897Z,1016.22
2018-12-31T03:25:43.787Z,1016.22
2018-12-31T03:26:43.780Z,1016.26
2018-12-31T03:27:43.767Z,1016.25
2018-12-31T03:28:43.759Z,1016.24
2018-12-31T03:29:43.767Z,1016.25
2018-12-31T03:30:43.741Z,1016.30
2018-12-31T03:31:43.867Z,1016.28
2018-12-31T03:32:43.710Z,1016.30
2018-12-31T03:33:43.698Z,1016.35
2018-12-31T03:34:43.706Z,1016.37
2018-12-31T03:35:43.677Z,1016.34
2018-12-31T03:36:43.663Z,1016.36
2018-12-31T03:37:43.659Z,1016.32
2018-12-31T03:38:43.644Z,1016.29
2018-12-31T03:39:43.649Z,1016.30
2018-12-31T03:40:43.619Z,1016.28
2018-12-31T03:41:43.613Z,1016.25
2018-12-31T03:42:43.599Z,1016.33
2018-12-31T03:43:43.586Z,1016.35
2018-12-31T03:44:43.603Z,1016.36
2018-12-31T03:45:43.567Z,1016.37
2018-12-31T03:46:43.553Z,1016.38
2018-12-31T03:47:43.544Z,1016.38
2018-12-31T03:48:43.530Z,1016.42
2018-12-31T03:49:43.523Z,1016.43
2018-12-31T03:50:43.533Z,1016.46
2018-12-31T03:51:43.495Z,1016.41
2018-12-31T03:52:43.484Z,1016.46
2018-12-31T03:53:43.473Z,1016.48
2018-12-31T03:54:43.462Z,1016.44
2018-12-31T03:55:43.450Z,1016.41
2018-12-31T03:56:43.470Z,1016.38
2018-12-31T03:57:43.431Z,1016.36
2018-12-31T03:58:43.419Z,1016.34
2018-12-31T03:59:43.409Z,1016.33
2018-12-31T04:00:43.396Z,1016.36
2018-12-31T04:01:43.384Z,1016.39
2018-12-31T04:02:43.419Z,1016.47
2018-12-31T04:03:43.362Z,1016.46
2018-12-31T04:04:43.349Z,1016.49
2018-12-31T04:05:43.338Z,1016.51
2018-12-31T04:06:43.329Z,1016.48
2018-12-31T04:07:43.316Z,1016.48
2018-12-31T04:08:43.349Z,1016.47
2018-12-31T04:09:43.324Z,1016.50
2018-12-31T04:10:43.281Z,1016.48
2018-12-31T04:11:43.270Z,1016.46
2018-12-31T04:12:43.258Z,1016.49
2018-12-31T04:13:43.248Z,1016.52
2018-12-31T04:14:43.267Z,1016.51
2018-12-31T04:15:43.228Z,1016.46
2018-12-31T04:16:43.214Z,1016.38
2018-12-31T04:17:43.213Z,1016.38
2018-12-31T04:18:43.192Z,1016.45
2018-12-31T04:19:43.183Z,1016.47
2018-12-31T04:20:43.199Z,1016.45
2018-12-31T04:21:43.157Z,1016.45
2018-12-31T04:22:43.148Z,1016.47
2018-12-31T04:23:43.136Z,1016.51
2018-12-31T04:24:43.123Z,1016.49
2018-12-31T04:25:43.112Z,1016.47
2018-12-31T04:26:43.130Z,1016.47
2018-12-31T04:27:43.090Z,1016.43
2018-12-31T04:28:43.086Z,1016.51
2018-12-31T04:29:43.068Z,1016.49
2018-12-31T04:30:43.057Z,1016.49
2018-12-31T04:31:43.048Z,1016.48
2018-12-31T04:32:43.064Z,1016.48
2018-12-31T04:33:43.023Z,1016.44
2018-12-31T04:34:43.014Z,1016.46
2018-12-31T04:35:43.000Z,1016.44
2018-12-31T04:36:42.988Z,1016.42
2018-12-31T04:37:42.976Z,1016.41
2018-12-31T04:38:43.001Z,1016.42
2018-12-31T04:39:42.956Z,1016.46
2018-12-31T04:40:42.951Z,1016.53
2018-12-31T04:41:42.938Z,1016.56
2018-12-31T04:42:42.922Z,1016.58
2018-12-31T04:43:42.912Z,1016.57
2018-12-31T04:44:42.936Z,1016.52
2018-12-31T04:45:42.893Z,1016.49
2018-12-31T04:46:42.876Z,1016.52
2018-12-31T04:47:42.868Z,1016.52
2018-12-31T04:48:42.854Z,1016.53
2018-12-31T04:49:42.858Z,1016.51
2018-12-31T04:50:42.869Z,1016.48
2018-12-31T04:51:42.824Z,1016.45
2018-12-31T04:52:42.810Z,1016.44
2018-12-31T04:53:42.799Z,1016.47
2018-12-31T04:54:42.787Z,1016.48
2018-12-31T04:55:44.570Z,1016.49
2018-12-31T04:56:42.794Z,1016.49
2018-12-31T04:57:42.753Z,1016.46
2018-12-31T04:58:42.740Z,1016.50
2018-12-31T04:59:42.730Z,1016.47
2018-12-31T05:00:42.720Z,1016.44
2018-12-31T05:01:42.709Z,1016.46
2018-12-31T05:02:51.953Z,1016.49
2018-12-31T05:03:42.683Z,1016.45
2018-12-31T05:04:51.338Z,1016.44
2018-12-31T05:05:42.661Z,1016.44
2018-12-31T05:06:42.652Z,1016.41
2018-12-31T05:07:42.642Z,1016.42
2018-12-31T05:08:42.665Z,1016.38
2018-12-31T05:09:42.621Z,1016.40
2018-12-31T05:10:42.607Z,1016.42
2018-12-31T05:11:42.597Z,1016.47
2018-12-31T05:12:42.587Z,1016.48
2018-12-31T05:13:42.574Z,1016.47
2018-12-31T05:14:42.593Z,1016.51
2018-12-31T05:15:42.552Z,1016.51
2018-12-31T05:16:42.541Z,1016.54
2018-12-31T05:17:42.528Z,1016.59
2018-12-31T05:18:42.515Z,1016.56
2018-12-31T05:19:42.510Z,1016.53
2018-12-31T05:20:42.518Z,1016.51
2018-12-31T05:21:42.503Z,1016.52
2018-12-31T05:22:42.476Z,1016.53
2018-12-31T05:23:42.462Z,1016.53
2018-12-31T05:24:42.457Z,1016.59
2018-12-31T05:25:42.469Z,1016.61
2018-12-31T05:26:42.430Z,1016.65
2018-12-31T05:27:42.418Z,1016.59
2018-12-31T05:28:42.406Z,1016.60
2018-12-31T05:29:42.395Z,1016.64
2018-12-31T05:30:42.386Z,1016.68
2018-12-31T05:31:42.404Z,1016.67
2018-12-31T05:32:42.359Z,1016.70
2018-12-31T05:33:42.352Z,1016.68
2018-12-31T05:34:42.338Z,1016.73
2018-12-31T05:35:42.329Z,1016.72
2018-12-31T05:36:42.323Z,1016.71
2018-12-31T05:37:42.322Z,1016.75
2018-12-31T05:38:42.301Z,1016.72
2018-12-31T05:39:42.284Z,1016.70
2018-12-31T05:40:42.274Z,1016.72
2018-12-31T05:41:42.260Z,1016.69
2018-12-31T05:42:42.277Z,1016.68
2018-12-31T05:43:42.243Z,1016.63
2018-12-31T05:44:42.229Z,1016.64
2018-12-31T05:45:42.218Z,1016.62
2018-12-31T05:46:42.209Z,1016.61
2018-12-31T05:47:42.195Z,1016.66
2018-12-31T05:48:42.215Z,1016.65
2018-12-31T05:49:42.172Z,1016.71
2018-12-31T05:50:42.160Z,1016.69
2018-12-31T05:51:42.148Z,1016.73
2018-12-31T05:52:42.139Z,1016.75
2018-12-31T05:53:42.136Z,1016.71
2018-12-31T05:54:42.207Z,1016.73
2018-12-31T05:55:42.117Z,1016.69
2018-12-31T05:56:42.091Z,1016.65
2018-12-31T05:57:42.082Z,1016.64
2018-12-31T05:58:42.069Z,1016.66
2018-12-31T05:59:42.061Z,1016.68
2018-12-31T06:00:42.248Z,1016.69
2018-12-31T06:01:42.045Z,1016.67
2018-12-31T06:02:42.024Z,1016.71
2018-12-31T06:03:42.013Z,1016.70
2018-12-31T06:04:42.001Z,1016.77
2018-12-31T06:05:42.017Z,1016.75
2018-12-31T06:06:41.980Z,1016.76
2018-12-31T06:07:41.970Z,1016.80
2018-12-31T06:08:41.956Z,1016.79
2018-12-31T06:09:41.949Z,1016.79
2018-12-31T06:10:41.933Z,1016.83
2018-12-31T06:11:41.954Z,1016.81
2018-12-31T06:12:41.913Z,1016.81
2018-12-31T06:13:41.898Z,1016.83
2018-12-31T06:14:41.888Z,1016.81
2018-12-31T06:15:41.876Z,1016.83
2018-12-31T06:16:41.866Z,1016.80
2018-12-31T06:17:41.872Z,1016.75
2018-12-31T06:18:41.842Z,1016.76
2018-12-31T06:19:41.831Z,1016.71
2018-12-31T06:20:41.818Z,1016.71
2018-12-31T06:21:41.810Z,1016.73
2018-12-31T06:22:41.832Z,1016.74
2018-12-31T06:23:41.788Z,1016.72
2018-12-31T06:24:41.777Z,1016.78
2018-12-31T06:25:41.764Z,1016.73
2018-12-31T06:26:41.754Z,1016.76
2018-12-31T06:27:41.745Z,1016.75
2018-12-31T06:28:41.759Z,1016.78
2018-12-31T06:29:41.722Z,1016.76
2018-12-31T06:30:41.708Z,1016.86
2018-12-31T06:31:41.695Z,1016.80
2018-12-31T06:32:41.684Z,1016.77
2018-12-31T06:33:41.673Z,1016.73
2018-12-31T06:34:41.679Z,1016.68
2018-12-31T06:35:41.652Z,1016.69
2018-12-31T06:36:41.640Z,1016.68
2018-12-31T06:37:41.632Z,1016.71
2018-12-31T06:38:41.618Z,1016.73
2018-12-31T06:39:41.636Z,1016.74
2018-12-31T06:40:41.595Z,1016.79
2018-12-31T06:41:41.583Z,1016.77
2018-12-31T06:42:41.571Z,1016.78
2018-12-31T06:43:41.560Z,1016.81
2018-12-31T06:44:41.550Z,1016.86
2018-12-31T06:45:41.567Z,1016.85
2018-12-31T06:46:41.526Z,1016.92
2018-12-31T06:47:41.514Z,1016.94
2018-12-31T06:48:41.501Z,1016.96
2018-12-31T06:49:41.494Z,1016.95
2018-12-31T06:50:41.479Z,1016.95
2018-12-31T06:51:41.531Z,1016.98
2018-12-31T06:52:41.461Z,1017.00
2018-12-31T06:53:41.447Z,1016.98
2018-12-31T06:54:41.434Z,1017.06
2018-12-31T06:55:41.425Z,1017.14
2018-12-31T06:56:41.417Z,1017.16
2018-12-31T06:57:41.419Z,1017.14
2018-12-31T06:58:41.390Z,1017.24
2018-12-31T06:59:41.380Z,1017.25
2018-12-31T07:00:41.368Z,1017.22
2018-12-31T07:01:41.361Z,1017.26
2018-12-31T07:02:41.376Z,1017.34
2018-12-31T07:03:41.334Z,1017.27
2018-12-31T07:04:41.321Z,1017.37
2018-12-31T07:05:41.312Z,1017.36
2018-12-31T07:06:41.301Z,1017.43
2018-12-31T07:07:41.291Z,1017.44
2018-12-31T07:08:41.306Z,1017.50
2018-12-31T07:09:41.279Z,1017.53
2018-12-31T07:10:41.266Z,1017.57
2018-12-31T07:11:41.245Z,1017.54
2018-12-31T07:12:41.233Z,1017.52
2018-12-31T07:13:41.232Z,1017.52
2018-12-31T07:14:41.232Z,1017.53
2018-12-31T07:15:41.198Z,1017.49
2018-12-31T07:16:41.188Z,1017.48
2018-12-31T07:17:41.175Z,1017.44
2018-12-31T07:18:41.166Z,1017.37
2018-12-31T07:19:41.183Z,1017.35
2018-12-31T07:20:41.142Z,1017.29
2018-12-31T07:21:41.149Z,1017.33
2018-12-31T07:22:41.122Z,1017.34
2018-12-31T07:23:41.109Z,1017.29
2018-12-31T07:24:41.097Z,1017.31
2018-12-31T07:25:41.119Z,1017.30
2018-12-31T07:26:41.074Z,1017.21
2018-12-31T07:27:41.069Z,1017.26
2018-12-31T07:28:41.056Z,1017.21
2018-12-31T07:29:41.041Z,1017.30
2018-12-31T07:30:41.033Z,1017.21
2018-12-31T07:31:41.049Z,1017.20
2018-12-31T07:32:41.009Z,1017.14
2018-12-31T07:33:40.996Z,1017.16
2018-12-31T07:34:40.984Z,1017.11
2018-12-31T07:35:40.972Z,1017.10
2018-12-31T07:36:40.966Z,1017.10
2018-12-31T07:37:40.970Z,1017.11
2018-12-31T07:38:40.940Z,1017.09
2018-12-31T07:39:40.929Z,1017.08
2018-12-31T07:40:40.916Z,1017.16
2018-12-31T07:41:40.907Z,1017.21
2018-12-31T07:42:40.924Z,1017.23
2018-12-31T07:43:40.884Z,1017.24
2018-12-31T07:44:40.872Z,1017.20
2018-12-31T07:45:40.867Z,1017.18
2018-12-31T07:46:40.849Z,1017.17
2018-12-31T07:47:40.845Z,1017.19
2018-12-31T07:48:40.863Z,1017.17
2018-12-31T07:49:40.821Z,1017.25
2018-12-31T07:50:40.808Z,1017.20
2018-12-31T07:51:40.794Z,1017.30
2018-12-31T07:52:40.782Z,1017.35
2018-12-31T07:53:40.773Z,1017.34
2018-12-31T07:54:40.779Z,1017.32
2018-12-31T07:55:40.748Z,1017.32
2018-12-31T07:56:40.741Z,1017.35
2018-12-31T07:57:42.140Z,1017.38
2018-12-31T07:58:40.717Z,1017.41
2018-12-31T07:59:40.733Z,1017.50
2018-12-31T08:00:40.695Z,1017.41
2018-12-31T08:01:40.682Z,1017.44
2018-12-31T08:02:41.367Z,1017.38
2018-12-31T08:03:40.658Z,1017.41
2018-12-31T08:04:40.654Z,1017.36
2018-12-31T08:05:40.665Z,1017.35
2018-12-31T08:06:40.627Z,1017.36
2018-12-31T08:07:40.617Z,1017.38
2018-12-31T08:08:40.604Z,1017.41
2018-12-31T08:09:40.591Z,1017.44
2018-12-31T08:10:40.582Z,1017.45
2018-12-31T08:11:40.587Z,1017.45
2018-12-31T08:12:40.558Z,1017.46
2018-12-31T08:13:40.551Z,1017.42
2018-12-31T08:14:40.535Z,1017.40
2018-12-31T08:15:40.525Z,1017.42
2018-12-31T08:16:40.541Z,1017.41
2018-12-31T08:17:40.504Z,1017.41
2018-12-31T08:18:40.491Z,1017.40
2018-12-31T08:19:40.480Z,1017.45
2018-12-31T08:20:40.469Z,1017.42
2018-12-31T08:21:40.462Z,1017.45
2018-12-31T08:22:40.475Z,1017.51
2018-12-31T08:23:40.435Z,1017.52
2018-12-31T08:24:40.424Z,1017.56
2018-12-31T08:25:40.411Z,1017.61
2018-12-31T08:26:40.401Z,1017.60
2018-12-31T08:27:40.389Z,1017.66
2018-12-31T08:28:40.413Z,1017.61
2018-12-31T08:29:40.367Z,1017.66
2018-12-31T08:30:40.354Z,1017.64
2018-12-31T08:31:40.343Z,1017.65
2018-12-31T08:32:40.331Z,1017.64
2018-12-31T08:33:40.321Z,1017.57
2018-12-31T08:34:40.328Z,1017.55
2018-12-31T08:35:40.301Z,1017.59
2018-12-31T08:36:40.287Z,1017.60
2018-12-31T08:37:40.274Z,1017.58
2018-12-31T08:38:40.263Z,1017.58
2018-12-31T08:39:40.291Z,1017.57
2018-12-31T08:40:40.244Z,1017.58
2018-12-31T08:41:40.229Z,1017.63
2018-12-31T08:42:40.220Z,1017.63
2018-12-31T08:43:40.206Z,1017.68
2018-12-31T08:44:40.915Z,1017.65
2018-12-31T08:45:40.213Z,1017.70
2018-12-31T08:46:40.176Z,1017.64
2018-12-31T08:47:40.162Z,1017.64
2018-12-31T08:48:40.150Z,1017.62
2018-12-31T08:49:40.139Z,1017.59
2018-12-31T08:50:40.129Z,1017.62
2018-12-31T08:51:40.139Z,1017.60
2018-12-31T08:52:40.109Z,1017.63
2018-12-31T08:53:40.095Z,1017.63
2018-12-31T08:54:40.083Z,1017.70
2018-12-31T08:55:40.072Z,1017.71
2018-12-31T08:56:40.087Z,1017.69
2018-12-31T08:57:40.051Z,1017.64
2018-12-31T08:58:40.036Z,1017.67
2018-12-31T08:59:40.026Z,1017.58
2018-12-31T09:00:40.014Z,1017.59
2018-12-31T09:01:40.004Z,1017.58
2018-12-31T09:02:40.025Z,1017.65
2018-12-31T09:03:39.981Z,1017.55
2018-12-31T09:04:39.972Z,1017.55
2018-12-31T09:05:39.962Z,1017.50
2018-12-31T09:06:39.948Z,1017.52
2018-12-31T09:07:39.937Z,1017.60
2018-12-31T09:08:39.959Z,1017.60
2018-12-31T09:09:39.915Z,1017.59
2018-12-31T09:10:39.902Z,1017.56
2018-12-31T09:11:39.895Z,1017.62
2018-12-31T09:12:39.880Z,1017.61
2018-12-31T09:13:39.870Z,1017.64
2018-12-31T09:14:39.899Z,1017.67
2018-12-31T09:15:39.877Z,1017.62
2018-12-31T09:16:39.864Z,1017.64
2018-12-31T09:17:40.377Z,1017.70
2018-12-31T09:18:39.813Z,1017.68
2018-12-31T09:19:39.833Z,1017.67
2018-12-31T09:20:39.790Z,1017.60
2018-12-31T09:21:39.779Z,1017.59
2018-12-31T09:22:39.768Z,1017.59
2018-12-31T09:23:39.760Z,1017.58
2018-12-31T09:24:44.602Z,1017.55
2018-12-31T09:25:40.763Z,1017.55
2018-12-31T09:26:39.725Z,1017.58
2018-12-31T09:27:39.712Z,1017.56
2018-12-31T09:28:39.701Z,1017.56
2018-12-31T09:29:39.693Z,1017.54
2018-12-31T09:30:39.678Z,1017.56
2018-12-31T09:31:39.685Z,1017.53
2018-12-31T09:32:39.654Z,1017.56
2018-12-31T09:33:39.644Z,1017.57
2018-12-31T09:34:39.632Z,1017.54
2018-12-31T09:35:39.621Z,1017.57
2018-12-31T09:36:39.639Z,1017.56
2018-12-31T09:37:39.622Z,1017.59
2018-12-31T09:38:40.376Z,1017.60
2018-12-31T09:39:39.575Z,1017.57
2018-12-31T09:40:39.573Z,1017.55
2018-12-31T09:41:39.554Z,1017.56
2018-12-31T09:42:39.575Z,1017.58
2018-12-31T09:43:39.531Z,1017.58
2018-12-31T09:44:39.523Z,1017.58
2018-12-31T09:45:39.509Z,1017.56
2018-12-31T09:46:39.504Z,1017.57
2018-12-31T09:47:39.487Z,1017.49
2018-12-31T09:48:39.494Z,1017.51
2018-12-31T09:49:39.466Z,1017.47
2018-12-31T09:50:39.453Z,1017.43
2018-12-31T09:51:39.441Z,1017.42
2018-12-31T09:52:39.429Z,1017.38
2018-12-31T09:53:39.452Z,1017.39
2018-12-31T09:54:39.408Z,1017.39
2018-12-31T09:55:47.935Z,1017.39
2018-12-31T09:56:48.975Z,1017.43
2018-12-31T09:57:39.377Z,1017.43
2018-12-31T09:58:39.364Z,1017.42
2018-12-31T09:59:39.380Z,1017.44
2018-12-31T10:00:48.509Z,1017.43
2018-12-31T10:01:47.545Z,1017.41
2018-12-31T10:02:49.083Z,1017.42
2018-12-31T10:03:39.310Z,1017.47
2018-12-31T10:04:39.295Z,1017.48
2018-12-31T10:05:39.322Z,1017.45
2018-12-31T10:06:39.274Z,1017.43
2018-12-31T10:07:39.265Z,1017.43
2018-12-31T10:08:39.275Z,1017.43
2018-12-31T10:09:39.242Z,1017.43
2018-12-31T10:10:39.229Z,1017.41
2018-12-31T10:11:39.234Z,1017.39
2018-12-31T10:12:39.205Z,1017.40
2018-12-31T10:13:39.194Z,1017.35
2018-12-31T10:14:39.184Z,1017.35
2018-12-31T10:15:39.175Z,1017.35
2018-12-31T10:16:39.196Z,1017.39
2018-12-31T10:17:39.151Z,1017.39
2018-12-31T10:18:39.137Z,1017.39
2018-12-31T10:19:39.125Z,1017.41
2018-12-31T10:20:39.116Z,1017.43
2018-12-31T10:21:41.099Z,1017.43
2018-12-31T10:22:39.121Z,1017.39
2018-12-31T10:23:39.082Z,1017.38
2018-12-31T10:24:39.072Z,1017.42
2018-12-31T10:25:39.063Z,1017.43
2018-12-31T10:26:39.047Z,1017.42
2018-12-31T10:27:39.037Z,1017.40
2018-12-31T10:28:39.048Z,1017.42
2018-12-31T10:29:39.013Z,1017.44
2018-12-31T10:30:39.002Z,1017.44
2018-12-31T10:31:38.992Z,1017.37
2018-12-31T10:32:38.982Z,1017.41
2018-12-31T10:33:38.999Z,1017.43
2018-12-31T10:34:38.959Z,1017.43
2018-12-31T10:35:38.948Z,1017.45
2018-12-31T10:36:38.935Z,1017.44
2018-12-31T10:37:38.928Z,1017.43
2018-12-31T10:38:38.912Z,1017.40
2018-12-31T10:39:38.931Z,1017.38
2018-12-31T10:40:38.890Z,1017.37
2018-12-31T10:41:38.884Z,1017.34
2018-12-31T10:42:38.868Z,1017.36
2018-12-31T10:43:38.861Z,1017.31
2018-12-31T10:44:38.845Z,1017.22
2018-12-31T10:45:38.863Z,1017.19
2018-12-31T10:46:38.829Z,1017.20
2018-12-31T10:47:38.811Z,1017.19
2018-12-31T10:48:38.800Z,1017.24
2018-12-31T10:49:38.791Z,1017.23
2018-12-31T10:50:38.775Z,1017.20
2018-12-31T10:51:38.800Z,1017.17
2018-12-31T10:52:38.753Z,1017.22
2018-12-31T10:53:38.743Z,1017.22
2018-12-31T10:54:38.732Z,1017.12
2018-12-31T10:55:38.722Z,1017.13
2018-12-31T10:56:38.707Z,1017.08
2018-12-31T10:57:38.730Z,1017.12
2018-12-31T10:58:38.689Z,1017.08
2018-12-31T10:59:38.675Z,1017.08
2018-12-31T11:00:38.665Z,1017.07
2018-12-31T11:01:38.657Z,1017.06
2018-12-31T11:02:38.642Z,1017.05
2018-12-31T11:03:38.649Z,1017.07
2018-12-31T11:04:38.617Z,1017.06
2018-12-31T11:05:38.608Z,1017.04
2018-12-31T11:06:38.595Z,1016.96
2018-12-31T11:07:38.583Z,1016.94
2018-12-31T11:08:38.606Z,1016.92
2018-12-31T11:09:38.565Z,1016.90
2018-12-31T11:10:38.551Z,1016.95
2018-12-31T11:11:38.544Z,1016.93
2018-12-31T11:12:38.526Z,1016.92
2018-12-31T11:13:38.515Z,1016.89
2018-12-31T11:14:38.535Z,1016.93
2018-12-31T11:15:38.493Z,1016.91
2018-12-31T11:16:38.485Z,1016.91
2018-12-31T11:17:38.469Z,1016.90
2018-12-31T11:18:38.462Z,1016.91
2018-12-31T11:19:38.448Z,1016.95
2018-12-31T11:20:38.454Z,1016.94
2018-12-31T11:21:38.425Z,1016.93
2018-12-31T11:22:38.418Z,1016.89
2018-12-31T11:23:38.405Z,1016.87
2018-12-31T11:24:38.391Z,1016.87
2018-12-31T11:25:38.413Z,1016.88
2018-12-31T11:26:38.369Z,1016.88
2018-12-31T11:27:39.094Z,1016.95
2018-12-31T11:28:38.345Z,1016.94
2018-12-31T11:29:38.334Z,1016.96
2018-12-31T11:30:38.321Z,1016.97
2018-12-31T11:31:38.344Z,1016.96
2018-12-31T11:32:38.303Z,1016.96
2018-12-31T11:33:38.288Z,1016.98
2018-12-31T11:34:38.281Z,1016.93
2018-12-31T11:35:38.266Z,1016.88
2018-12-31T11:36:38.261Z,1016.87
2018-12-31T11:37:38.276Z,1016.84
2018-12-31T11:38:38.232Z,1016.80
2018-12-31T11:39:38.220Z,1016.76
2018-12-31T11:40:38.213Z,1016.82
2018-12-31T11:41:38.200Z,1016.80
2018-12-31T11:42:38.188Z,1016.73
2018-12-31T11:43:38.200Z,1016.75
2018-12-31T11:44:38.166Z,1016.71
2018-12-31T11:45:38.154Z,1016.71
2018-12-31T11:46:38.147Z,1016.71
2018-12-31T11:47:38.131Z,1016.67
2018-12-31T11:48:38.148Z,1016.67
2018-12-31T11:49:38.107Z,1016.70
2018-12-31T11:50:38.096Z,1016.65
2018-12-31T11:51:38.104Z,1016.68
2018-12-31T11:52:38.068Z,1016.68
2018-12-31T11:53:38.065Z,1016.67
2018-12-31T11:54:39.387Z,1016.64
2018-12-31T11:55:38.038Z,1016.67
2018-12-31T11:56:38.028Z,1016.67
2018-12-31T11:57:38.018Z,1016.68
2018-12-31T11:58:38.004Z,1016.65
2018-12-31T11:59:37.994Z,1016.70
2018-12-31T12:00:38.002Z,1016.69
2018-12-31T12:01:38.004Z,1016.67
2018-12-31T12:02:38.956Z,1016.69
2018-12-31T12:03:37.950Z,1016.69
2018-12-31T12:04:37.938Z,1016.71
2018-12-31T12:05:37.959Z,1016.71